Hidalgo, Illinois
Current Conditions -  °F | °C
As of 9:35 AM on Monday 22 Dec 2014 (Local Time) from K1H2 Reporting Station
Drizzle Drizzle  
Wind Chill: 31°   Ceiling: 700
Heat Index: 39°   Visibility: 3mi
Dew Point: 36°   Wind: 12mph
Humidity: 89%   Direction: 110°ESE
Pressure: 29.85"   Gusts: NA
Location:  39.16°N, 88.15°W
Report Text: K1H2 221535Z AUTO 11010KT 3SM -DZ OVC007 04/02 A2985 RMK AO2 T00370020
Loading
Personal Weather Stations






























Interactive Weather Map New forecast layout! Learn more

10-Day Weather Forecast

Advertisements
Track Severe Weather on mobile